sensor_id;sensor_type;location;lat;lon;timestamp;pressure;altitude;pressure_sealevel;temperature;humidity
15670;BME280;18524;45.190;5.732;2022-07-12T00:03:17;99385.03;;;27.51;44.51
15670;BME280;18524;45.190;5.732;2022-07-12T00:08:08;99388.00;;;27.42;44.14
15670;BME280;18524;45.190;5.732;2022-07-12T00:12:58;99386.59;;;27.40;44.43
15670;BME280;18524;45.190;5.732;2022-07-12T00:17:49;99375.59;;;27.41;44.48
15670;BME280;18524;45.190;5.732;2022-07-12T00:22:39;99381.88;;;27.35;44.37
15670;BME280;18524;45.190;5.732;2022-07-12T00:27:30;99384.56;;;27.35;44.49
15670;BME280;18524;45.190;5.732;2022-07-12T00:32:20;99396.50;;;27.28;45.01
15670;BME280;18524;45.190;5.732;2022-07-12T00:37:10;99395.66;;;27.27;44.63
15670;BME280;18524;45.190;5.732;2022-07-12T00:42:01;99399.25;;;27.21;45.23
15670;BME280;18524;45.190;5.732;2022-07-12T00:46:52;99404.28;;;27.18;45.50
15670;BME280;18524;45.190;5.732;2022-07-12T00:51:44;99399.53;;;27.13;45.40
15670;BME280;18524;45.190;5.732;2022-07-12T00:56:36;99399.94;;;27.17;45.47
15670;BME280;18524;45.190;5.732;2022-07-12T01:01:27;99403.97;;;27.07;45.77
15670;BME280;18524;45.190;5.732;2022-07-12T01:06:19;99402.69;;;27.10;46.29
15670;BME280;18524;45.190;5.732;2022-07-12T01:11:10;99406.50;;;27.02;46.10
15670;BME280;18524;45.190;5.732;2022-07-12T01:16:01;99404.69;;;26.96;46.00
15670;BME280;18524;45.190;5.732;2022-07-12T01:20:51;99396.19;;;26.99;45.94
15670;BME280;18524;45.190;5.732;2022-07-12T01:25:42;99396.47;;;26.91;46.19
15670;BME280;18524;45.190;5.732;2022-07-12T01:30:32;99411.28;;;26.75;46.89
15670;BME280;18524;45.190;5.732;2022-07-12T01:35:24;99409.19;;;26.59;47.12
15670;BME280;18524;45.190;5.732;2022-07-12T01:40:15;99414.63;;;26.53;47.48
15670;BME280;18524;45.190;5.732;2022-07-12T01:45:07;99418.13;;;26.53;47.59
15670;BME280;18524;45.190;5.732;2022-07-12T01:49:59;99431.88;;;26.45;47.77
15670;BME280;18524;45.190;5.732;2022-07-12T01:54:49;99430.53;;;26.23;48.17
15670;BME280;18524;45.190;5.732;2022-07-12T01:59:40;99436.31;;;26.26;48.02
15670;BME280;18524;45.190;5.732;2022-07-12T02:04:31;99450.41;;;26.22;47.59
15670;BME280;18524;45.190;5.732;2022-07-12T02:09:22;99448.88;;;26.01;48.00
15670;BME280;18524;45.190;5.732;2022-07-12T02:14:13;99450.91;;;25.74;48.65
15670;BME280;18524;45.190;5.732;2022-07-12T02:19:03;99453.00;;;25.52;49.12
15670;BME280;18524;45.190;5.732;2022-07-12T02:23:54;99454.72;;;25.40;48.66
15670;BME280;18524;45.190;5.732;2022-07-12T02:28:44;99454.22;;;25.56;48.59
15670;BME280;18524;45.190;5.732;2022-07-12T02:33:35;99454.63;;;25.73;48.45
15670;BME280;18524;45.190;5.732;2022-07-12T02:38:25;99453.81;;;25.59;48.66
15670;BME280;18524;45.190;5.732;2022-07-12T02:43:16;99451.75;;;25.54;48.69
15670;BME280;18524;45.190;5.732;2022-07-12T02:48:06;99464.00;;;25.44;48.00
15670;BME280;18524;45.190;5.732;2022-07-12T02:52:56;99455.16;;;25.23;48.29
15670;BME280;18524;45.190;5.732;2022-07-12T02:57:47;99454.34;;;25.30;48.72
15670;BME280;18524;45.190;5.732;2022-07-12T03:02:39;99453.28;;;25.37;47.98
15670;BME280;18524;45.190;5.732;2022-07-12T03:07:29;99457.63;;;25.25;48.84
15670;BME280;18524;45.190;5.732;2022-07-12T03:12:19;99450.38;;;25.39;48.25
15670;BME280;18524;45.190;5.732;2022-07-12T03:17:10;99464.38;;;25.54;47.66
15670;BME280;18524;45.190;5.732;2022-07-12T03:22:00;99461.47;;;25.55;47.81
15670;BME280;18524;45.190;5.732;2022-07-12T03:26:50;99468.28;;;25.58;47.57
15670;BME280;18524;45.190;5.732;2022-07-12T03:31:41;99471.22;;;25.50;48.13
15670;BME280;18524;45.190;5.732;2022-07-12T03:36:31;99476.97;;;25.53;47.79
15670;BME280;18524;45.190;5.732;2022-07-12T03:41:22;99476.22;;;25.40;48.78
15670;BME280;18524;45.190;5.732;2022-07-12T03:46:12;99480.09;;;25.50;48.13
15670;BME280;18524;45.190;5.732;2022-07-12T03:51:02;99486.13;;;25.39;47.81
15670;BME280;18524;45.190;5.732;2022-07-12T03:55:53;99490.69;;;25.25;48.34
15670;BME280;18524;45.190;5.732;2022-07-12T04:00:43;99491.50;;;25.33;48.42
15670;BME280;18524;45.190;5.732;2022-07-12T04:05:34;99495.84;;;25.20;48.70
15670;BME280;18524;45.190;5.732;2022-07-12T04:10:24;99504.16;;;24.99;49.46
15670;BME280;18524;45.190;5.732;2022-07-12T04:15:14;99513.22;;;25.11;48.98
15670;BME280;18524;45.190;5.732;2022-07-12T04:20:05;99513.63;;;25.21;49.08
15670;BME280;18524;45.190;5.732;2022-07-12T04:24:56;99523.34;;;25.09;49.26
15670;BME280;18524;45.190;5.732;2022-07-12T04:29:47;99523.75;;;25.06;49.78
15670;BME280;18524;45.190;5.732;2022-07-12T04:34:37;99532.22;;;25.10;49.58
15670;BME280;18524;45.190;5.732;2022-07-12T04:39:28;99531.38;;;24.96;49.96
15670;BME280;18524;45.190;5.732;2022-07-12T04:44:18;99531.38;;;24.63;50.72
15670;BME280;18524;45.190;5.732;2022-07-12T04:49:08;99537.75;;;24.55;51.40
15670;BME280;18524;45.190;5.732;2022-07-12T04:53:59;99532.97;;;24.31;52.16
15670;BME280;18524;45.190;5.732;2022-07-12T04:58:49;99527.66;;;24.57;51.17
15670;BME280;18524;45.190;5.732;2022-07-12T05:03:39;99534.69;;;24.91;50.06
15670;BME280;18524;45.190;5.732;2022-07-12T05:08:30;99544.41;;;25.12;49.37
15670;BME280;18524;45.190;5.732;2022-07-12T05:13:20;99550.56;;;25.26;48.56
15670;BME280;18524;45.190;5.732;2022-07-12T05:18:10;99550.75;;;25.51;47.90
15670;BME280;18524;45.190;5.732;2022-07-12T05:23:01;99556.78;;;25.40;48.34
15670;BME280;18524;45.190;5.732;2022-07-12T05:27:51;99563.63;;;25.29;48.65
15670;BME280;18524;45.190;5.732;2022-07-12T05:32:42;99563.13;;;25.59;47.79
15670;BME280;18524;45.190;5.732;2022-07-12T05:37:32;99565.66;;;26.18;46.74
15670;BME280;18524;45.190;5.732;2022-07-12T05:42:22;99566.13;;;26.53;45.53
15670;BME280;18524;45.190;5.732;2022-07-12T05:47:13;99559.41;;;26.24;45.42
15670;BME280;18524;45.190;5.732;2022-07-12T05:52:03;99563.53;;;25.82;46.02
15670;BME280;18524;45.190;5.732;2022-07-12T05:57:14;99563.97;;;25.52;46.74
15670;BME280;18524;45.190;5.732;2022-07-12T06:02:06;99570.16;;;26.24;45.82
15670;BME280;18524;45.190;5.732;2022-07-12T06:06:57;99564.69;;;26.06;46.32
15670;BME280;18524;45.190;5.732;2022-07-12T06:11:48;99573.88;;;25.72;47.55
15670;BME280;18524;45.190;5.732;2022-07-12T06:16:38;99576.50;;;25.92;46.95
15670;BME280;18524;45.190;5.732;2022-07-12T06:21:28;99580.00;;;26.50;45.68
15670;BME280;18524;45.190;5.732;2022-07-12T06:26:19;99583.63;;;27.25;44.23
15670;BME280;18524;45.190;5.732;2022-07-12T06:31:09;99584.44;;;27.51;43.02
15670;BME280;18524;45.190;5.732;2022-07-12T06:36:00;99578.31;;;27.62;42.90
15670;BME280;18524;45.190;5.732;2022-07-12T06:40:50;99579.97;;;27.81;41.72
15670;BME280;18524;45.190;5.732;2022-07-12T06:45:41;99586.63;;;27.97;40.49
15670;BME280;18524;45.190;5.732;2022-07-12T06:50:32;99579.59;;;28.62;40.07
15670;BME280;18524;45.190;5.732;2022-07-12T06:55:22;99576.69;;;28.46;39.84
15670;BME280;18524;45.190;5.732;2022-07-12T07:00:13;99570.34;;;28.82;38.56
15670;BME280;18524;45.190;5.732;2022-07-12T07:05:04;99569.25;;;29.36;36.83
15670;BME280;18524;45.190;5.732;2022-07-12T07:09:54;99571.66;;;29.44;36.73
15670;BME280;18524;45.190;5.732;2022-07-12T07:14:45;99565.56;;;30.12;36.28
15670;BME280;18524;45.190;5.732;2022-07-12T07:19:38;99569.00;;;29.73;34.38
15670;BME280;18524;45.190;5.732;2022-07-12T07:24:29;99567.75;;;29.40;36.64
15670;BME280;18524;45.190;5.732;2022-07-12T07:29:19;99573.81;;;29.36;37.62
15670;BME280;18524;45.190;5.732;2022-07-12T07:34:28;99566.53;;;29.83;36.09
15670;BME280;18524;45.190;5.732;2022-07-12T07:39:19;99568.59;;;30.16;35.77
15670;BME280;18524;45.190;5.732;2022-07-12T07:44:09;99563.91;;;30.40;34.66
15670;BME280;18524;45.190;5.732;2022-07-12T07:48:59;99559.19;;;30.07;35.32
15670;BME280;18524;45.190;5.732;2022-07-12T07:53:50;99553.31;;;29.98;36.00
15670;BME280;18524;45.190;5.732;2022-07-12T07:58:40;99557.56;;;30.06;35.17
15670;BME280;18524;45.190;5.732;2022-07-12T08:03:30;99548.22;;;30.42;34.80
15670;BME280;18524;45.190;5.732;2022-07-12T08:08:21;99548.66;;;30.79;34.19
15670;BME280;18524;45.190;5.732;2022-07-12T08:13:11;99543.69;;;30.59;35.02
15670;BME280;18524;45.190;5.732;2022-07-12T08:18:02;99553.28;;;30.50;34.74
15670;BME280;18524;45.190;5.732;2022-07-12T08:22:53;99547.56;;;30.63;34.62
15670;BME280;18524;45.190;5.732;2022-07-12T08:27:43;99544.53;;;30.60;33.93
15670;BME280;18524;45.190;5.732;2022-07-12T08:32:34;99545.84;;;30.74;34.14
15670;BME280;18524;45.190;5.732;2022-07-12T08:37:24;99553.31;;;31.51;32.51
15670;BME280;18524;45.190;5.732;2022-07-12T08:42:16;99557.25;;;31.60;32.54
15670;BME280;18524;45.190;5.732;2022-07-12T08:47:09;99550.97;;;31.76;32.55
15670;BME280;18524;45.190;5.732;2022-07-12T08:51:59;99545.78;;;31.96;32.42
15670;BME280;18524;45.190;5.732;2022-07-12T08:56:49;99545.22;;;31.56;32.97
15670;BME280;18524;45.190;5.732;2022-07-12T09:01:48;99543.25;;;32.12;32.13
15670;BME280;18524;45.190;5.732;2022-07-12T09:06:40;99540.59;;;31.95;32.32
15670;BME280;18524;45.190;5.732;2022-07-12T09:11:31;99530.69;;;32.27;31.24
15670;BME280;18524;45.190;5.732;2022-07-12T09:16:28;99527.41;;;32.52;31.57
15670;BME280;18524;45.190;5.732;2022-07-12T09:26:16;99526.75;;;32.40;31.42
15670;BME280;18524;45.190;5.732;2022-07-12T09:31:06;99523.44;;;32.65;31.03
15670;BME280;18524;45.190;5.732;2022-07-12T09:40:56;99519.81;;;33.61;28.68
15670;BME280;18524;45.190;5.732;2022-07-12T09:45:48;99514.06;;;33.52;28.60
15670;BME280;18524;45.190;5.732;2022-07-12T09:50:39;99513.97;;;33.84;29.29
15670;BME280;18524;45.190;5.732;2022-07-12T09:55:32;99507.28;;;34.42;27.88
15670;BME280;18524;45.190;5.732;2022-07-12T10:00:25;99507.31;;;35.03;27.52
15670;BME280;18524;45.190;5.732;2022-07-12T10:05:16;99509.97;;;35.29;27.70
15670;BME280;18524;45.190;5.732;2022-07-12T10:10:10;99506.75;;;35.12;27.34
15670;BME280;18524;45.190;5.732;2022-07-12T10:15:03;99516.06;;;34.95;27.71
15670;BME280;18524;45.190;5.732;2022-07-12T10:20:15;99506.22;;;35.09;27.78
15670;BME280;18524;45.190;5.732;2022-07-12T10:25:30;99499.50;;;35.77;27.34
15670;BME280;18524;45.190;5.732;2022-07-12T10:30:22;99494.56;;;36.28;26.32
15670;BME280;18524;45.190;5.732;2022-07-12T10:35:17;99495.34;;;36.39;25.95
15670;BME280;18524;45.190;5.732;2022-07-12T10:40:14;99484.91;;;36.75;25.64
15670;BME280;18524;45.190;5.732;2022-07-12T10:45:16;99481.81;;;36.91;25.71
15670;BME280;18524;45.190;5.732;2022-07-12T10:50:07;99478.03;;;36.87;24.18
15670;BME280;18524;45.190;5.732;2022-07-12T10:59:50;99458.22;;;37.24;24.51
15670;BME280;18524;45.190;5.732;2022-07-12T11:04:46;99464.59;;;37.63;24.63
15670;BME280;18524;45.190;5.732;2022-07-12T11:09:37;99462.50;;;37.97;24.05
15670;BME280;18524;45.190;5.732;2022-07-12T11:14:29;99458.22;;;38.10;24.18
15670;BME280;18524;45.190;5.732;2022-07-12T11:19:25;99457.25;;;38.20;23.75
15670;BME280;18524;45.190;5.732;2022-07-12T11:24:19;99443.66;;;38.47;24.03
15670;BME280;18524;45.190;5.732;2022-07-12T11:29:11;99436.16;;;38.71;23.53
15670;BME280;18524;45.190;5.732;2022-07-12T11:34:01;99447.94;;;38.86;23.45
15670;BME280;18524;45.190;5.732;2022-07-12T11:38:52;99436.38;;;38.89;24.08
15670;BME280;18524;45.190;5.732;2022-07-12T11:43:43;99427.59;;;39.05;23.32
15670;BME280;18524;45.190;5.732;2022-07-12T11:48:35;99423.09;;;39.23;23.41
15670;BME280;18524;45.190;5.732;2022-07-12T11:53:26;99412.91;;;39.37;23.32
15670;BME280;18524;45.190;5.732;2022-07-12T11:58:17;99420.34;;;39.51;22.78
15670;BME280;18524;45.190;5.732;2022-07-12T12:03:09;99409.06;;;39.25;23.59
15670;BME280;18524;45.190;5.732;2022-07-12T12:07:59;99420.75;;;39.58;22.73
15670;BME280;18524;45.190;5.732;2022-07-12T12:12:55;99414.25;;;39.54;22.65
15670;BME280;18524;45.190;5.732;2022-07-12T12:17:50;99399.91;;;39.57;22.28
15670;BME280;18524;45.190;5.732;2022-07-12T12:22:43;99408.63;;;39.59;22.02
15670;BME280;18524;45.190;5.732;2022-07-12T12:27:40;99389.44;;;39.45;22.44
15670;BME280;18524;45.190;5.732;2022-07-12T12:32:46;99408.00;;;39.62;22.17
15670;BME280;18524;45.190;5.732;2022-07-12T12:37:36;99382.75;;;39.74;22.01
15670;BME280;18524;45.190;5.732;2022-07-12T12:42:27;99371.00;;;39.59;22.51
15670;BME280;18524;45.190;5.732;2022-07-12T12:47:17;99379.81;;;39.70;22.98
15670;BME280;18524;45.190;5.732;2022-07-12T12:52:24;99385.78;;;39.50;22.02
15670;BME280;18524;45.190;5.732;2022-07-12T12:57:15;99360.84;;;39.46;22.04
15670;BME280;18524;45.190;5.732;2022-07-12T13:02:07;99364.59;;;39.36;21.33
15670;BME280;18524;45.190;5.732;2022-07-12T13:06:58;99362.47;;;38.65;21.66
15670;BME280;18524;45.190;5.732;2022-07-12T13:11:49;99378.38;;;38.49;22.18
15670;BME280;18524;45.190;5.732;2022-07-12T13:16:39;99368.44;;;38.53;22.28
15670;BME280;18524;45.190;5.732;2022-07-12T13:21:30;99356.94;;;38.37;21.85
15670;BME280;18524;45.190;5.732;2022-07-12T13:26:20;99351.16;;;37.88;22.04
15670;BME280;18524;45.190;5.732;2022-07-12T13:31:11;99334.72;;;38.06;23.14
15670;BME280;18524;45.190;5.732;2022-07-12T13:36:01;99351.00;;;37.98;21.82
15670;BME280;18524;45.190;5.732;2022-07-12T13:40:51;99346.88;;;37.81;22.22
15670;BME280;18524;45.190;5.732;2022-07-12T13:45:42;99343.03;;;37.64;22.09
15670;BME280;18524;45.190;5.732;2022-07-12T13:50:35;99340.41;;;37.53;21.89
15670;BME280;18524;45.190;5.732;2022-07-12T13:55:26;99330.44;;;37.25;21.98
15670;BME280;18524;45.190;5.732;2022-07-12T14:00:17;99335.69;;;37.16;21.86
15670;BME280;18524;45.190;5.732;2022-07-12T14:05:09;99328.84;;;37.19;23.01
15670;BME280;18524;45.190;5.732;2022-07-12T14:10:03;99312.78;;;37.12;22.04
15670;BME280;18524;45.190;5.732;2022-07-12T14:14:53;99329.69;;;36.96;22.00
15670;BME280;18524;45.190;5.732;2022-07-12T14:20:02;99314.88;;;36.73;22.54
15670;BME280;18524;45.190;5.732;2022-07-12T14:24:54;99335.09;;;36.53;22.28
15670;BME280;18524;45.190;5.732;2022-07-12T14:29:44;99329.63;;;36.19;22.68
15670;BME280;18524;45.190;5.732;2022-07-12T14:34:34;99341.06;;;35.92;23.32
15670;BME280;18524;45.190;5.732;2022-07-12T14:39:25;99334.88;;;35.76;22.97
15670;BME280;18524;45.190;5.732;2022-07-12T14:44:16;99323.19;;;35.65;23.18
15670;BME280;18524;45.190;5.732;2022-07-12T14:49:08;99329.38;;;35.42;23.37
15670;BME280;18524;45.190;5.732;2022-07-12T14:53:59;99313.38;;;35.15;23.63
15670;BME280;18524;45.190;5.732;2022-07-12T14:58:49;99320.75;;;35.15;24.04
15670;BME280;18524;45.190;5.732;2022-07-12T15:03:40;99341.56;;;34.90;24.62
15670;BME280;18524;45.190;5.732;2022-07-12T15:08:30;99320.91;;;34.69;24.76
15670;BME280;18524;45.190;5.732;2022-07-12T15:13:21;99324.78;;;34.58;25.77
15670;BME280;18524;45.190;5.732;2022-07-12T15:18:11;99311.69;;;34.44;25.45
15670;BME280;18524;45.190;5.732;2022-07-12T15:23:01;99297.00;;;34.30;25.69
15670;BME280;18524;45.190;5.732;2022-07-12T15:27:52;99298.91;;;34.14;26.74
15670;BME280;18524;45.190;5.732;2022-07-12T15:32:43;99298.66;;;34.11;27.57
15670;BME280;18524;45.190;5.732;2022-07-12T15:37:33;99311.72;;;33.99;26.27
15670;BME280;18524;45.190;5.732;2022-07-12T15:42:24;99297.00;;;33.79;27.38
15670;BME280;18524;45.190;5.732;2022-07-12T15:47:14;99302.44;;;33.64;27.42
15670;BME280;18524;45.190;5.732;2022-07-12T15:52:04;99299.16;;;33.52;27.53
15670;BME280;18524;45.190;5.732;2022-07-12T15:57:14;99296.66;;;33.35;26.78
15670;BME280;18524;45.190;5.732;2022-07-12T16:02:06;99294.22;;;33.34;26.55
15670;BME280;18524;45.190;5.732;2022-07-12T16:06:57;99292.25;;;33.19;26.79
15670;BME280;18524;45.190;5.732;2022-07-12T16:11:47;99287.06;;;33.12;28.50
15670;BME280;18524;45.190;5.732;2022-07-12T16:16:38;99283.75;;;33.00;26.94
15670;BME280;18524;45.190;5.732;2022-07-12T16:21:28;99289.19;;;33.00;26.81
15670;BME280;18524;45.190;5.732;2022-07-12T16:26:18;99297.84;;;32.87;26.58
15670;BME280;18524;45.190;5.732;2022-07-12T16:31:09;99284.25;;;32.82;27.06
15670;BME280;18524;45.190;5.732;2022-07-12T16:35:59;99298.03;;;32.75;26.19
15670;BME280;18524;45.190;5.732;2022-07-12T16:40:51;99284.19;;;32.77;27.20
15670;BME280;18524;45.190;5.732;2022-07-12T16:45:41;99280.66;;;32.76;26.32
15670;BME280;18524;45.190;5.732;2022-07-12T16:50:32;99290.91;;;32.64;26.32
15670;BME280;18524;45.190;5.732;2022-07-12T16:55:24;99290.06;;;32.58;26.29
15670;BME280;18524;45.190;5.732;2022-07-12T17:00:15;99284.06;;;32.51;27.48
15670;BME280;18524;45.190;5.732;2022-07-12T17:05:05;99298.72;;;32.50;27.76
15670;BME280;18524;45.190;5.732;2022-07-12T17:09:57;99291.06;;;32.42;27.69
15670;BME280;18524;45.190;5.732;2022-07-12T17:14:47;99287.81;;;32.40;27.18
15670;BME280;18524;45.190;5.732;2022-07-12T17:19:38;99294.28;;;32.34;27.63
15670;BME280;18524;45.190;5.732;2022-07-12T17:24:28;99291.00;;;32.32;26.64
15670;BME280;18524;45.190;5.732;2022-07-12T17:29:19;99292.53;;;32.23;27.22
15670;BME280;18524;45.190;5.732;2022-07-12T17:34:09;99291.63;;;32.07;27.21
15670;BME280;18524;45.190;5.732;2022-07-12T17:38:59;99300.03;;;32.06;27.93
15670;BME280;18524;45.190;5.732;2022-07-12T17:43:50;99302.97;;;31.99;27.33
15670;BME280;18524;45.190;5.732;2022-07-12T17:48:40;99302.41;;;31.97;27.53
15670;BME280;18524;45.190;5.732;2022-07-12T17:53:31;99313.44;;;31.90;27.89
15670;BME280;18524;45.190;5.732;2022-07-12T17:58:21;99312.66;;;31.95;27.52
15670;BME280;18524;45.190;5.732;2022-07-12T18:03:27;99313.75;;;31.94;28.13
15670;BME280;18524;45.190;5.732;2022-07-12T18:08:18;99309.06;;;31.84;28.55
15670;BME280;18524;45.190;5.732;2022-07-12T18:13:08;99315.53;;;31.78;29.26
15670;BME280;18524;45.190;5.732;2022-07-12T18:18:17;99327.66;;;31.70;29.45
15670;BME280;18524;45.190;5.732;2022-07-12T18:23:07;99325.13;;;31.64;29.58
15670;BME280;18524;45.190;5.732;2022-07-12T18:27:59;99318.06;;;31.63;30.60
15670;BME280;18524;45.190;5.732;2022-07-12T18:32:49;99322.25;;;31.49;31.17
15670;BME280;18524;45.190;5.732;2022-07-12T18:37:40;99317.38;;;31.51;31.32
15670;BME280;18524;45.190;5.732;2022-07-12T18:42:31;99318.41;;;31.45;32.00
15670;BME280;18524;45.190;5.732;2022-07-12T18:47:21;99316.63;;;31.28;32.10
15670;BME280;18524;45.190;5.732;2022-07-12T18:52:12;99319.59;;;31.27;31.96
15670;BME280;18524;45.190;5.732;2022-07-12T18:57:03;99324.88;;;31.17;31.93
15670;BME280;18524;45.190;5.732;2022-07-12T19:01:57;99330.66;;;31.03;32.64
15670;BME280;18524;45.190;5.732;2022-07-12T19:06:47;99330.28;;;30.95;33.12
15670;BME280;18524;45.190;5.732;2022-07-12T19:11:38;99331.47;;;30.82;32.99
15670;BME280;18524;45.190;5.732;2022-07-12T19:16:28;99341.41;;;30.76;33.38
15670;BME280;18524;45.190;5.732;2022-07-12T19:21:21;99345.69;;;30.56;33.47
15670;BME280;18524;45.190;5.732;2022-07-12T19:26:11;99348.16;;;30.57;33.71
15670;BME280;18524;45.190;5.732;2022-07-12T19:31:02;99353.41;;;30.47;34.08
15670;BME280;18524;45.190;5.732;2022-07-12T19:35:52;99361.13;;;30.38;33.96
15670;BME280;18524;45.190;5.732;2022-07-12T19:40:43;99367.03;;;30.35;34.94
15670;BME280;18524;45.190;5.732;2022-07-12T19:45:34;99371.41;;;30.20;34.05
15670;BME280;18524;45.190;5.732;2022-07-12T19:50:26;99375.09;;;30.13;34.49
15670;BME280;18524;45.190;5.732;2022-07-12T19:55:16;99384.53;;;29.99;34.79
15670;BME280;18524;45.190;5.732;2022-07-12T20:00:07;99388.47;;;29.92;34.90
15670;BME280;18524;45.190;5.732;2022-07-12T20:04:59;99390.84;;;29.88;34.55
15670;BME280;18524;45.190;5.732;2022-07-12T20:09:49;99399.94;;;29.82;34.89
15670;BME280;18524;45.190;5.732;2022-07-12T20:14:40;99399.94;;;29.82;34.39
15670;BME280;18524;45.190;5.732;2022-07-12T20:19:30;99405.59;;;29.69;33.90
15670;BME280;18524;45.190;5.732;2022-07-12T20:24:23;99402.13;;;29.56;34.36
15670;BME280;18524;45.190;5.732;2022-07-12T20:29:14;99405.31;;;29.53;33.89
15670;BME280;18524;45.190;5.732;2022-07-12T20:34:04;99401.22;;;29.51;33.10
15670;BME280;18524;45.190;5.732;2022-07-12T20:39:14;99405.72;;;29.45;33.35
15670;BME280;18524;45.190;5.732;2022-07-12T20:44:04;99416.53;;;29.45;33.34
15670;BME280;18524;45.190;5.732;2022-07-12T20:48:55;99410.84;;;29.35;34.75
15670;BME280;18524;45.190;5.732;2022-07-12T20:53:46;99419.34;;;29.27;32.92
15670;BME280;18524;45.190;5.732;2022-07-12T20:58:37;99411.63;;;29.19;33.08
15670;BME280;18524;45.190;5.732;2022-07-12T21:03:27;99407.66;;;29.10;33.17
15670;BME280;18524;45.190;5.732;2022-07-12T21:08:17;99420.22;;;29.04;33.79
15670;BME280;18524;45.190;5.732;2022-07-12T21:13:08;99413.66;;;29.00;33.81
15670;BME280;18524;45.190;5.732;2022-07-12T21:17:58;99417.75;;;29.03;33.50
15670;BME280;18524;45.190;5.732;2022-07-12T21:22:49;99419.16;;;28.93;33.24
15670;BME280;18524;45.190;5.732;2022-07-12T21:27:40;99419.13;;;28.82;34.06
15670;BME280;18524;45.190;5.732;2022-07-12T21:32:31;99425.72;;;28.86;33.37
15670;BME280;18524;45.190;5.732;2022-07-12T21:37:21;99426.53;;;28.75;33.43
15670;BME280;18524;45.190;5.732;2022-07-12T21:42:12;99421.16;;;28.63;33.65
15670;BME280;18524;45.190;5.732;2022-07-12T21:47:03;99421.16;;;28.63;34.13
15670;BME280;18524;45.190;5.732;2022-07-12T21:51:54;99423.84;;;28.63;34.04
15670;BME280;18524;45.190;5.732;2022-07-12T21:56:45;99432.97;;;28.50;33.91
15670;BME280;18524;45.190;5.732;2022-07-12T22:01:36;99431.56;;;28.48;33.85
15670;BME280;18524;45.190;5.732;2022-07-12T22:06:27;99441.63;;;28.41;33.12
15670;BME280;18524;45.190;5.732;2022-07-12T22:11:17;99450.66;;;28.35;33.57
15670;BME280;18524;45.190;5.732;2022-07-12T22:16:07;99456.28;;;28.33;33.95
15670;BME280;18524;45.190;5.732;2022-07-12T22:20:58;99455.34;;;28.27;34.56
15670;BME280;18524;45.190;5.732;2022-07-12T22:25:48;99458.91;;;28.21;34.37
15670;BME280;18524;45.190;5.732;2022-07-12T22:30:39;99457.72;;;28.17;35.44
15670;BME280;18524;45.190;5.732;2022-07-12T22:35:29;99472.72;;;28.13;34.82
15670;BME280;18524;45.190;5.732;2022-07-12T22:40:20;99477.41;;;28.06;35.60
15670;BME280;18524;45.190;5.732;2022-07-12T22:45:10;99486.28;;;27.95;35.57
15670;BME280;18524;45.190;5.732;2022-07-12T22:50:01;99501.25;;;27.91;35.40
15670;BME280;18524;45.190;5.732;2022-07-12T22:54:51;99504.25;;;27.83;36.24
15670;BME280;18524;45.190;5.732;2022-07-12T22:59:44;99504.34;;;27.76;36.04
15670;BME280;18524;45.190;5.732;2022-07-12T23:04:34;99505.75;;;27.60;36.50
15670;BME280;18524;45.190;5.732;2022-07-12T23:09:24;99509.13;;;27.56;36.73
15670;BME280;18524;45.190;5.732;2022-07-12T23:14:15;99526.38;;;27.48;36.63
15670;BME280;18524;45.190;5.732;2022-07-12T23:19:06;99523.16;;;27.39;36.94
15670;BME280;18524;45.190;5.732;2022-07-12T23:23:56;99536.25;;;27.36;36.73
15670;BME280;18524;45.190;5.732;2022-07-12T23:28:46;99533.72;;;27.23;37.01
15670;BME280;18524;45.190;5.732;2022-07-12T23:33:37;99535.66;;;27.16;37.53
15670;BME280;18524;45.190;5.732;2022-07-12T23:38:27;99536.06;;;27.13;37.65
15670;BME280;18524;45.190;5.732;2022-07-12T23:43:17;99539.63;;;27.06;37.82
15670;BME280;18524;45.190;5.732;2022-07-12T23:48:08;99545.50;;;26.97;37.59
15670;BME280;18524;45.190;5.732;2022-07-12T23:52:58;99554.25;;;26.92;37.92
15670;BME280;18524;45.190;5.732;2022-07-12T23:57:49;99552.00;;;26.89;37.74
